Time;durP1;ratioP1;P1;durP2;ratioP2;P2;SDS_P1;SDS_P2;PMS_P1;PMS_P2;Temp;Humidity;BMP_temperature;BMP_pressure;BME280_temperature;BME280_humidity;BME280_pressure;Samples;Min_cycle;Max_cycle;Signal;HPM_P1;HPM_P2
2023/09/25 00:01:19;;;;;;;2.95;1.90;;;12.90;99.90;;;;;;5074174;28;20089;-77
2023/09/25 00:03:45;;;;;;;3.92;2.10;;;12.90;99.90;;;;;;5074202;28;20044;-76
2023/09/25 00:06:10;;;;;;;3.90;2.35;;;12.80;99.90;;;;;;5074949;28;20048;-77
2023/09/25 00:08:36;;;;;;;3.38;1.65;;;12.80;99.90;;;;;;5072895;28;20040;-77
2023/09/25 00:11:03;;;;;;;2.88;1.88;;;12.80;99.90;;;;;;5072894;28;20173;-77
2023/09/25 00:13:29;;;;;;;3.13;1.80;;;12.80;99.90;;;;;;5074618;28;20119;-77
2023/09/25 00:15:59;;;;;;;3.05;1.70;;;12.70;99.90;;;;;;5074009;28;20075;-77
2023/09/25 00:18:25;;;;;;;3.45;2.00;;;12.70;99.90;;;;;;5074548;28;20042;-77
2023/09/25 00:20:51;;;;;;;3.58;2.03;;;12.60;99.90;;;;;;5072936;28;20048;-77
2023/09/25 00:23:17;;;;;;;4.28;2.10;;;12.60;99.90;;;;;;5073915;28;20057;-77
2023/09/25 00:25:43;;;;;;;3.95;2.33;;;12.60;99.90;;;;;;5072948;28;20440;-77
2023/09/25 00:28:08;;;;;;;2.67;1.63;;;12.60;99.90;;;;;;5073687;28;20485;-77
2023/09/25 00:30:34;;;;;;;2.40;1.50;;;12.60;99.90;;;;;;5073224;28;20044;-77
2023/09/25 00:33:00;;;;;;;2.60;1.98;;;12.60;99.90;;;;;;5073731;28;20374;-77
2023/09/25 00:35:25;;;;;;;3.03;2.35;;;12.60;99.90;;;;;;5073343;28;20059;-77
2023/09/25 00:37:51;;;;;;;2.55;1.67;;;12.60;99.90;;;;;;5073730;28;20394;-77
2023/09/25 00:40:21;;;;;;;3.58;1.80;;;12.60;99.90;;;;;;5073757;28;20384;-77
2023/09/25 00:42:50;;;;;;;3.50;2.03;;;12.60;99.90;;;;;;5073341;28;20044;-77
2023/09/25 00:45:16;;;;;;;3.53;1.70;;;12.60;99.90;;;;;;5072996;28;20052;-77
2023/09/25 00:47:43;;;;;;;3.10;1.70;;;12.60;99.90;;;;;;5073208;28;20097;-77
2023/09/25 00:50:09;;;;;;;2.42;1.65;;;12.60;99.90;;;;;;5073538;28;20040;-77
2023/09/25 00:52:39;;;;;;;2.25;1.50;;;12.60;99.90;;;;;;5073604;28;20052;-77
2023/09/25 00:55:06;;;;;;;2.50;1.52;;;12.60;99.90;;;;;;5073569;28;20413;-78
2023/09/25 00:57:35;;;;;;;4.63;2.00;;;12.70;99.90;;;;;;5073487;28;20048;-77
2023/09/25 01:00:02;;;;;;;3.97;1.60;;;12.60;99.90;;;;;;5073452;28;20037;-78
2023/09/25 01:02:28;;;;;;;3.00;1.60;;;12.60;99.90;;;;;;5073475;28;20074;-78
2023/09/25 01:04:54;;;;;;;3.05;1.60;;;12.60;99.90;;;;;;5073378;28;20045;-78
2023/09/25 01:07:20;;;;;;;4.20;1.60;;;12.60;99.90;;;;;;5072660;28;20048;-78
2023/09/25 01:10:13;;;;;;;2.65;1.63;;;12.60;99.90;;;;;;5072489;28;20080;-78
2023/09/25 01:12:38;;;;;;;3.85;1.92;;;12.60;99.90;;;;;;5074221;28;20052;-78
2023/09/25 01:15:05;;;;;;;2.60;1.52;;;12.60;99.90;;;;;;5072994;28;20481;-78
2023/09/25 01:17:34;;;;;;;3.22;1.75;;;12.50;99.90;;;;;;5072390;28;20392;-78
2023/09/25 01:20:05;;;;;;;3.22;1.90;;;12.50;99.90;;;;;;5073336;28;20481;-78
2023/09/25 01:22:31;;;;;;;2.45;1.42;;;12.50;99.90;;;;;;5073369;28;20048;-78
2023/09/25 01:24:57;;;;;;;2.92;1.50;;;12.50;99.90;;;;;;5073850;28;20124;-77
2023/09/25 01:27:22;;;;;;;2.47;1.60;;;12.50;99.90;;;;;;5073086;28;20055;-78
2023/09/25 01:29:48;;;;;;;2.70;1.48;;;12.50;99.90;;;;;;5073189;28;20185;-78
2023/09/25 01:32:14;;;;;;;2.63;1.60;;;12.50;99.90;;;;;;5073301;28;20060;-78
2023/09/25 01:34:41;;;;;;;3.97;1.85;;;12.50;99.90;;;;;;5073456;28;20044;-78
2023/09/25 01:37:07;;;;;;;3.33;1.80;;;12.50;99.90;;;;;;5072269;28;20052;-77
2023/09/25 01:39:35;;;;;;;4.70;1.80;;;12.50;99.90;;;;;;5073370;28;20041;-78
2023/09/25 01:42:01;;;;;;;4.03;1.70;;;12.60;99.90;;;;;;5073552;28;20049;-78
2023/09/25 01:44:28;;;;;;;2.67;1.42;;;12.50;99.90;;;;;;5077455;28;20389;-78
2023/09/25 01:46:55;;;;;;;4.28;1.75;;;12.60;99.90;;;;;;5076719;28;20048;-77
2023/09/25 01:49:20;;;;;;;3.70;1.60;;;12.60;99.90;;;;;;5076697;28;20051;-78
2023/09/25 01:51:46;;;;;;;3.80;2.00;;;12.60;99.90;;;;;;5059073;28;20048;-78
2023/09/25 01:54:12;;;;;;;3.30;1.50;;;12.50;99.90;;;;;;5076713;28;20490;-78
2023/09/25 01:56:37;;;;;;;2.55;1.50;;;12.50;99.90;;;;;;5076045;28;20398;-78
2023/09/25 01:59:03;;;;;;;2.95;1.60;;;12.50;99.90;;;;;;5076219;28;20047;-78
2023/09/25 02:01:29;;;;;;;2.60;1.55;;;12.50;99.90;;;;;;5077100;28;20053;-78
2023/09/25 02:03:54;;;;;;;2.78;1.75;;;12.50;99.90;;;;;;5076510;28;20044;-77
2023/09/25 02:06:21;;;;;;;2.30;1.50;;;12.40;99.90;;;;;;5076431;28;20390;-78
2023/09/25 02:08:47;;;;;;;3.83;1.73;;;12.40;99.90;;;;;;5076262;28;20040;-78
2023/09/25 02:11:13;;;;;;;3.60;1.80;;;12.40;99.90;;;;;;5076318;28;20049;-78
2023/09/25 02:13:38;;;;;;;3.50;1.90;;;12.40;99.90;;;;;;5076237;28;20055;-78
2023/09/25 02:16:04;;;;;;;2.35;1.80;;;12.30;99.90;;;;;;5076267;28;20044;-78
2023/09/25 02:18:29;;;;;;;2.70;1.73;;;12.30;99.90;;;;;;5076187;28;20485;-78
2023/09/25 02:20:55;;;;;;;3.58;2.13;;;12.30;99.90;;;;;;5074910;28;20045;-78
2023/09/25 02:23:21;;;;;;;2.92;1.70;;;12.30;99.90;;;;;;5076070;28;20436;-79
2023/09/25 02:25:46;;;;;;;2.05;1.40;;;12.30;99.90;;;;;;5076066;28;20063;-79
2023/09/25 02:28:12;;;;;;;3.05;1.90;;;12.30;99.90;;;;;;5058344;28;20049;-78
2023/09/25 02:30:38;;;;;;;2.90;1.60;;;12.20;99.90;;;;;;5076200;28;20044;-77
2023/09/25 02:33:04;;;;;;;3.00;1.83;;;12.20;99.90;;;;;;5075761;28;20056;-78
2023/09/25 02:35:31;;;;;;;2.92;1.80;;;12.20;99.90;;;;;;5075455;28;20059;-78
2023/09/25 02:37:57;;;;;;;3.17;1.83;;;12.20;99.90;;;;;;5075773;28;20052;-78
2023/09/25 02:40:24;;;;;;;2.72;1.80;;;12.20;99.90;;;;;;5075795;28;20091;-78
2023/09/25 02:42:50;;;;;;;3.10;1.73;;;12.20;99.90;;;;;;5075762;28;20070;-78
2023/09/25 02:45:16;;;;;;;4.82;2.17;;;12.10;99.90;;;;;;5075738;28;20127;-78
2023/09/25 02:47:43;;;;;;;2.58;1.50;;;12.10;99.90;;;;;;5074516;28;20093;-78
2023/09/25 02:50:09;;;;;;;2.58;1.98;;;12.10;99.90;;;;;;5075560;28;20051;-79
2023/09/25 02:52:36;;;;;;;3.03;2.00;;;12.10;99.90;;;;;;5075562;28;20102;-77
2023/09/25 02:55:02;;;;;;;3.33;1.80;;;12.10;99.90;;;;;;5074959;28;20048;-77
2023/09/25 02:57:28;;;;;;;3.03;1.70;;;12.10;99.90;;;;;;5058025;28;20084;-78
2023/09/25 02:59:53;;;;;;;4.25;1.80;;;12.10;99.90;;;;;;5074568;28;20087;-77
2023/09/25 03:02:20;;;;;;;4.95;1.90;;;12.20;99.90;;;;;;5075961;28;20048;-79
2023/09/25 03:04:46;;;;;;;3.97;1.83;;;12.20;99.90;;;;;;5075005;28;20090;-79
2023/09/25 03:07:12;;;;;;;3.05;1.70;;;12.20;99.90;;;;;;5075602;28;20496;-77
2023/09/25 03:09:37;;;;;;;2.30;1.70;;;12.10;99.90;;;;;;5073796;28;20037;-78
2023/09/25 03:12:03;;;;;;;2.67;1.45;;;12.20;99.90;;;;;;5075116;28;20048;-78
2023/09/25 03:14:29;;;;;;;3.10;1.83;;;12.10;99.90;;;;;;5108305;28;20413;-77
2023/09/25 03:16:54;;;;;;;2.70;1.90;;;12.10;99.90;;;;;;5075666;28;20493;-77
2023/09/25 03:19:20;;;;;;;2.75;1.60;;;12.10;99.90;;;;;;5074388;28;20462;-77
2023/09/25 03:21:46;;;;;;;4.45;1.85;;;12.10;99.90;;;;;;5074982;28;20179;-78
2023/09/25 03:24:11;;;;;;;3.03;1.90;;;12.00;99.90;;;;;;5073775;28;20048;-77
2023/09/25 03:26:37;;;;;;;4.18;1.80;;;12.00;99.90;;;;;;5073733;28;20063;-77
2023/09/25 03:29:06;;;;;;;3.03;1.75;;;12.00;99.90;;;;;;5074794;28;20051;-77
2023/09/25 03:31:32;;;;;;;3.38;1.50;;;12.00;99.90;;;;;;5073853;28;20390;-78
2023/09/25 03:33:58;;;;;;;2.90;1.75;;;12.00;99.90;;;;;;5074769;28;20045;-76
2023/09/25 03:36:24;;;;;;;5.05;1.77;;;12.00;99.90;;;;;;5074667;28;20067;-77
2023/09/25 03:38:49;;;;;;;3.90;2.00;;;12.00;99.90;;;;;;5075055;28;20045;-76
2023/09/25 03:41:15;;;;;;;3.15;1.98;;;12.00;99.90;;;;;;5074584;28;20041;-76
2023/09/25 03:43:41;;;;;;;2.33;1.60;;;12.00;99.90;;;;;;5074611;28;20040;-76
2023/09/25 03:46:07;;;;;;;3.00;1.95;;;12.00;99.90;;;;;;5073892;28;20080;-77
2023/09/25 03:48:32;;;;;;;2.78;1.75;;;12.00;99.90;;;;;;5073417;28;20075;-77
2023/09/25 03:50:58;;;;;;;4.20;1.85;;;12.00;99.90;;;;;;5074409;28;20090;-77
2023/09/25 03:53:24;;;;;;;3.22;1.80;;;11.90;99.90;;;;;;5074578;28;20501;-77
2023/09/25 03:55:50;;;;;;;3.33;1.90;;;11.90;99.90;;;;;;5073373;28;20083;-77
2023/09/25 03:58:16;;;;;;;4.05;1.80;;;11.90;99.90;;;;;;5074101;28;20045;-78
2023/09/25 04:00:42;;;;;;;2.92;1.95;;;11.90;99.90;;;;;;5073270;28;20045;-77
2023/09/25 04:03:07;;;;;;;3.75;2.17;;;11.90;99.90;;;;;;5074244;28;20055;-78
2023/09/25 04:05:33;;;;;;;3.35;1.95;;;11.90;99.90;;;;;;5073880;28;20504;-78
2023/09/25 04:08:00;;;;;;;2.97;1.55;;;11.90;99.90;;;;;;5073562;28;20044;-77
2023/09/25 04:10:27;;;;;;;2.53;1.63;;;11.90;99.90;;;;;;5074869;28;20386;-77
2023/09/25 04:12:53;;;;;;;2.90;1.75;;;11.90;99.90;;;;;;5073018;28;20048;-77
2023/09/25 04:15:22;;;;;;;3.05;1.70;;;11.90;99.90;;;;;;5073941;28;20056;-77
2023/09/25 04:17:50;;;;;;;3.10;1.70;;;11.90;99.90;;;;;;5073990;28;20041;-77
2023/09/25 04:20:17;;;;;;;2.85;1.80;;;11.90;99.90;;;;;;5073001;28;20057;-78
2023/09/25 04:22:47;;;;;;;4.47;1.90;;;12.00;99.90;;;;;;5073894;28;20481;-77
2023/09/25 04:25:18;;;;;;;4.38;2.05;;;11.90;99.90;;;;;;5073863;28;20058;-77
2023/09/25 04:27:45;;;;;;;2.85;1.75;;;11.90;99.90;;;;;;5073616;28;20132;-78
2023/09/25 04:30:14;;;;;;;3.60;1.90;;;11.90;99.90;;;;;;5073756;28;20036;-77
2023/09/25 04:32:42;;;;;;;2.90;1.60;;;11.90;99.90;;;;;;5073798;28;20057;-77
2023/09/25 04:35:08;;;;;;;3.53;2.00;;;11.90;99.90;;;;;;5073696;28;20054;-77
2023/09/25 04:37:34;;;;;;;2.92;1.80;;;11.90;99.90;;;;;;5072996;28;20374;-77
2023/09/25 04:40:00;;;;;;;2.95;1.77;;;11.90;99.90;;;;;;5073975;28;20046;-77
2023/09/25 04:42:25;;;;;;;3.88;2.22;;;11.90;99.90;;;;;;5074105;28;20068;-78
2023/09/25 04:44:51;;;;;;;3.65;1.80;;;11.80;99.90;;;;;;5073647;28;20538;-78
2023/09/25 04:47:17;;;;;;;3.97;1.85;;;11.90;99.90;;;;;;5073598;28;20040;-77
2023/09/25 04:49:42;;;;;;;3.03;1.80;;;11.90;99.90;;;;;;5073293;28;20103;-77
2023/09/25 04:52:08;;;;;;;3.92;2.00;;;11.90;99.90;;;;;;5073493;28;20127;-77
2023/09/25 04:54:37;;;;;;;3.15;2.13;;;11.90;99.90;;;;;;5073515;28;20041;-77
2023/09/25 04:57:02;;;;;;;3.47;2.10;;;11.80;99.90;;;;;;5072558;28;20052;-77
2023/09/25 04:59:28;;;;;;;2.97;1.83;;;11.80;99.90;;;;;;5073538;28;20101;-77
2023/09/25 05:01:54;;;;;;;3.13;1.95;;;11.80;99.90;;;;;;5072330;28;20124;-77
2023/09/25 05:04:19;;;;;;;2.47;1.80;;;11.80;99.90;;;;;;5073581;28;20424;-77
2023/09/25 05:06:45;;;;;;;2.58;1.85;;;11.80;99.90;;;;;;5073425;28;20048;-78
2023/09/25 05:09:11;;;;;;;3.35;1.80;;;11.80;99.90;;;;;;5072816;28;20385;-77
2023/09/25 05:11:37;;;;;;;3.17;1.73;;;11.80;99.90;;;;;;5073785;28;20067;-78
2023/09/25 05:14:03;;;;;;;2.58;1.70;;;11.80;99.90;;;;;;5073679;28;20453;-77
2023/09/25 05:16:30;;;;;;;3.38;1.70;;;11.80;99.90;;;;;;5072557;28;20484;-77
2023/09/25 05:18:57;;;;;;;3.92;1.92;;;11.80;99.90;;;;;;5075325;28;20087;-77
2023/09/25 05:21:24;;;;;;;2.88;1.90;;;11.80;99.90;;;;;;5076662;28;20048;-77
2023/09/25 05:23:49;;;;;;;4.18;1.80;;;11.80;99.90;;;;;;5075279;28;20067;-77
2023/09/25 05:26:15;;;;;;;4.05;1.95;;;11.80;99.90;;;;;;5076488;28;20119;-77
2023/09/25 05:28:40;;;;;;;3.10;1.85;;;11.80;99.90;;;;;;5075373;28;20052;-77
2023/09/25 05:31:07;;;;;;;3.25;2.25;;;11.80;99.90;;;;;;5075444;28;20086;-76
2023/09/25 05:33:33;;;;;;;2.97;1.75;;;11.80;99.90;;;;;;5077463;28;20409;-77
2023/09/25 05:35:59;;;;;;;3.78;1.95;;;11.80;99.90;;;;;;5076950;28;20049;-77
2023/09/25 05:38:25;;;;;;;3.40;1.85;;;11.70;99.90;;;;;;5075783;28;20135;-77
2023/09/25 05:40:51;;;;;;;2.95;2.00;;;11.80;99.90;;;;;;5076877;28;20072;-77
2023/09/25 05:43:17;;;;;;;3.28;1.92;;;11.80;99.90;;;;;;5076836;28;20182;-77
2023/09/25 05:45:42;;;;;;;4.57;2.00;;;11.70;99.90;;;;;;5076775;28;20089;-77
2023/09/25 05:48:09;;;;;;;2.70;2.00;;;11.70;99.90;;;;;;5075913;28;20048;-78
2023/09/25 05:50:36;;;;;;;2.80;1.70;;;11.70;99.90;;;;;;5076615;28;20103;-79
2023/09/25 05:53:03;;;;;;;3.28;1.85;;;11.70;99.90;;;;;;5076631;28;20063;-78
2023/09/25 05:55:29;;;;;;;3.58;2.10;;;11.70;99.90;;;;;;5077118;28;20052;-79
2023/09/25 05:57:55;;;;;;;5.40;2.22;;;11.80;99.90;;;;;;5077623;28;20249;-78
2023/09/25 06:00:22;;;;;;;6.60;3.33;;;11.80;99.90;;;;;;5076553;28;20473;-78
2023/09/25 06:02:48;;;;;;;3.67;2.10;;;11.80;99.90;;;;;;5076427;28;20205;-78
2023/09/25 06:05:13;;;;;;;4.38;2.05;;;11.70;99.90;;;;;;5075547;28;20074;-78
2023/09/25 06:07:39;;;;;;;3.22;1.85;;;11.80;99.90;;;;;;5075349;28;20055;-77
2023/09/25 06:10:07;;;;;;;4.72;3.17;;;11.90;99.90;;;;;;5076672;28;20056;-78
2023/09/25 06:12:33;;;;;;;2.95;2.03;;;11.90;99.90;;;;;;5076150;28;20052;-78
2023/09/25 06:14:59;;;;;;;5.80;2.30;;;11.90;99.90;;;;;;5076290;28;20051;-77
2023/09/25 06:17:26;;;;;;;3.50;1.85;;;11.90;99.90;;;;;;5076037;28;20044;-69
2023/09/25 06:19:53;;;;;;;3.10;1.80;;;12.00;99.90;;;;;;5075815;28;20040;-68
2023/09/25 06:22:21;;;;;;;3.10;2.00;;;12.00;99.90;;;;;;5075144;28;20602;-68
2023/09/25 06:24:47;;;;;;;2.60;1.90;;;12.00;99.90;;;;;;5076093;28;20500;-68
2023/09/25 06:27:13;;;;;;;6.63;2.03;;;12.00;99.90;;;;;;5076822;28;20052;-68
2023/09/25 06:29:39;;;;;;;2.65;1.83;;;12.10;99.90;;;;;;5075791;28;20040;-68
2023/09/25 06:32:04;;;;;;;2.80;1.77;;;12.10;99.90;;;;;;5075718;28;20056;-68
2023/09/25 06:34:30;;;;;;;2.85;1.70;;;12.20;99.90;;;;;;5075885;28;20404;-68
2023/09/25 06:36:56;;;;;;;3.53;1.92;;;12.20;99.90;;;;;;5075833;28;20047;-67
2023/09/25 06:39:23;;;;;;;3.42;2.00;;;12.30;99.90;;;;;;5074640;28;20072;-67
2023/09/25 06:41:49;;;;;;;2.95;1.75;;;12.30;99.90;;;;;;5075739;28;20414;-67
2023/09/25 06:44:14;;;;;;;2.97;1.92;;;12.30;99.90;;;;;;5074952;28;20040;-68
2023/09/25 06:46:41;;;;;;;3.58;2.08;;;12.30;99.90;;;;;;5074107;28;20055;-67
2023/09/25 06:49:07;;;;;;;3.33;1.90;;;12.40;99.90;;;;;;5075571;28;20072;-67
2023/09/25 06:51:33;;;;;;;3.83;2.00;;;12.40;99.90;;;;;;5076187;28;20496;-67
2023/09/25 06:53:58;;;;;;;3.63;1.95;;;12.50;99.90;;;;;;5075525;28;20052;-67
2023/09/25 06:56:25;;;;;;;2.60;1.65;;;12.60;99.90;;;;;;5075463;28;20045;-67
2023/09/25 06:58:53;;;;;;;3.60;1.70;;;12.60;99.90;;;;;;5076025;28;20045;-67
2023/09/25 07:01:20;;;;;;;2.50;1.80;;;12.60;99.90;;;;;;5075424;28;20052;-68
2023/09/25 07:03:46;;;;;;;2.88;1.63;;;12.80;99.90;;;;;;5074083;28;20056;-68
2023/09/25 07:06:11;;;;;;;3.55;1.70;;;12.80;99.90;;;;;;5075891;28;20135;-67
2023/09/25 07:08:38;;;;;;;3.85;2.22;;;12.90;99.90;;;;;;5075758;28;20048;-67
2023/09/25 07:11:04;;;;;;;2.97;1.80;;;12.90;99.90;;;;;;5075222;28;20044;-67
2023/09/25 07:13:31;;;;;;;3.55;1.90;;;13.00;99.90;;;;;;5075130;28;20091;-67
2023/09/25 07:16:08;;;;;;;5.63;2.20;;;13.10;99.90;;;;;;5075119;28;20051;-66
2023/09/25 07:18:34;;;;;;;3.08;1.73;;;13.20;99.90;;;;;;5075034;28;20485;-66
2023/09/25 07:21:00;;;;;;;2.95;1.75;;;13.20;99.90;;;;;;5075000;28;20177;-67
2023/09/25 07:23:26;;;;;;;3.05;1.80;;;13.30;99.90;;;;;;5074495;28;20094;-67
2023/09/25 07:26:08;;;;;;;3.83;1.80;;;13.50;99.90;;;;;;5074725;28;20055;-68
2023/09/25 07:28:36;;;;;;;2.78;1.70;;;13.60;99.90;;;;;;5073724;28;20048;-66
2023/09/25 07:31:02;;;;;;;3.72;2.33;;;13.70;99.90;;;;;;5074669;28;20071;-66
2023/09/25 07:33:31;;;;;;;4.25;1.70;;;13.80;99.90;;;;;;5075123;28;20378;-65
2023/09/25 07:35:58;;;;;;;2.85;2.15;;;14.00;99.90;;;;;;5073445;28;20044;-65
2023/09/25 07:38:24;;;;;;;2.65;1.33;;;14.10;99.90;;;;;;5074654;28;20080;-66
2023/09/25 07:40:50;;;;;;;6.15;1.90;;;14.20;99.90;;;;;;5074492;28;20044;-66
2023/09/25 07:43:19;;;;;;;2.60;1.83;;;14.30;99.90;;;;;;5075253;28;20117;-66
2023/09/25 07:45:48;;;;;;;2.88;1.60;;;14.40;99.90;;;;;;5074957;28;20066;-67
2023/09/25 07:48:18;;;;;;;2.92;1.67;;;14.50;99.90;;;;;;5074401;28;20037;-66
2023/09/25 07:50:45;;;;;;;3.20;1.77;;;14.50;99.90;;;;;;5073670;28;20045;-66
2023/09/25 07:53:14;;;;;;;2.90;1.73;;;14.60;99.90;;;;;;5074361;28;20049;-67
2023/09/25 07:55:41;;;;;;;2.70;1.60;;;14.70;99.90;;;;;;5074661;28;20098;-67
2023/09/25 07:58:07;;;;;;;2.38;1.60;;;14.80;99.90;;;;;;5074759;28;20480;-65
2023/09/25 08:00:40;;;;;;;2.63;1.60;;;14.80;99.90;;;;;;5072975;28;20048;-66
2023/09/25 08:03:07;;;;;;;2.47;1.77;;;14.90;99.90;;;;;;5074984;28;20049;-66
2023/09/25 08:05:34;;;;;;;3.67;1.73;;;15.00;99.90;;;;;;5074547;28;20048;-65
2023/09/25 08:07:59;;;;;;;2.60;1.50;;;15.00;99.90;;;;;;5073081;28;20079;-66
2023/09/25 08:10:25;;;;;;;3.38;1.63;;;15.00;99.90;;;;;;5074254;28;20083;-66
2023/09/25 08:12:51;;;;;;;2.53;1.70;;;15.10;99.90;;;;;;5073910;28;20052;-68
2023/09/25 08:15:16;;;;;;;2.20;1.42;;;15.10;99.90;;;;;;5073800;28;20047;-65
2023/09/25 08:17:44;;;;;;;3.17;1.50;;;15.20;99.90;;;;;;5073915;28;20131;-65
2023/09/25 08:20:20;;;;;;;3.45;1.73;;;15.30;99.90;;;;;;5073868;28;20402;-65
2023/09/25 08:22:49;;;;;;;3.35;1.63;;;15.30;99.90;;;;;;5074696;28;20054;-65
2023/09/25 08:25:16;;;;;;;3.28;1.90;;;15.30;99.90;;;;;;5073810;28;20123;-65
2023/09/25 08:27:42;;;;;;;2.30;1.35;;;15.40;99.90;;;;;;5073863;28;20036;-65
2023/09/25 08:30:09;;;;;;;2.95;1.50;;;15.50;99.90;;;;;;5073656;28;20174;-66
2023/09/25 08:32:35;;;;;;;2.50;1.60;;;15.50;99.90;;;;;;5073591;28;20065;-65
2023/09/25 08:35:01;;;;;;;4.40;1.67;;;15.60;99.90;;;;;;5072542;28;20055;-66
2023/09/25 08:37:27;;;;;;;2.35;1.50;;;15.70;99.90;;;;;;5073750;28;20119;-66
2023/09/25 08:39:54;;;;;;;2.67;1.58;;;15.90;99.90;;;;;;5073732;28;20044;-66
2023/09/25 08:42:24;;;;;;;3.13;1.52;;;16.00;99.90;;;;;;5073762;28;20056;-65
2023/09/25 08:44:56;;;;;;;3.58;1.60;;;16.10;99.90;;;;;;5072383;28;20500;-66
2023/09/25 08:47:22;;;;;;;3.15;1.40;;;16.30;99.90;;;;;;5074172;28;20045;-65
2023/09/25 08:49:52;;;;;;;3.35;1.42;;;16.40;99.90;;;;;;5074084;28;20420;-65
2023/09/25 08:52:22;;;;;;;3.63;1.40;;;16.60;99.90;;;;;;5072958;28;20037;-65
2023/09/25 08:54:48;;;;;;;3.70;1.50;;;16.70;99.90;;;;;;5074289;28;20051;-65
2023/09/25 08:57:15;;;;;;;2.88;1.20;;;16.80;99.90;;;;;;5072506;28;20474;-65
2023/09/25 08:59:45;;;;;;;3.50;1.25;;;16.80;99.90;;;;;;5073275;28;20477;-65
2023/09/25 09:02:12;;;;;;;3.25;1.70;;;16.80;99.90;;;;;;5074313;28;20048;-66
2023/09/25 09:04:38;;;;;;;2.92;1.40;;;16.80;99.90;;;;;;5072840;28;20048;-66
2023/09/25 09:07:11;;;;;;;2.67;1.20;;;16.80;99.90;;;;;;5073908;28;20094;-66
2023/09/25 09:09:37;;;;;;;3.25;1.38;;;16.70;99.90;;;;;;5073952;28;20052;-66
2023/09/25 09:12:04;;;;;;;2.17;1.10;;;16.70;99.90;;;;;;5073821;28;20048;-66
2023/09/25 09:14:41;;;;;;;4.05;1.58;;;16.70;99.90;;;;;;5073183;28;20052;-66
2023/09/25 09:17:09;;;;;;;3.40;1.48;;;16.80;99.90;;;;;;5072262;28;20059;-65
2023/09/25 09:19:47;;;;;;;2.67;1.20;;;16.90;99.90;;;;;;5073146;28;20036;-65
2023/09/25 09:22:16;;;;;;;2.88;1.40;;;17.10;99.90;;;;;;5073152;28;20052;-65
2023/09/25 09:24:43;;;;;;;3.20;1.45;;;17.20;99.90;;;;;;5073188;28;20094;-65
2023/09/25 09:27:09;;;;;;;2.97;1.30;;;17.40;99.90;;;;;;5073411;28;20367;-66
2023/09/25 09:29:40;;;;;;;2.22;1.23;;;17.50;99.90;;;;;;5073005;28;20127;-66
2023/09/25 09:32:06;;;;;;;2.97;1.40;;;17.70;99.90;;;;;;5073869;28;20060;-65
2023/09/25 09:34:32;;;;;;;2.70;1.30;;;17.90;99.90;;;;;;5073086;28;20048;-66
2023/09/25 09:36:59;;;;;;;2.55;1.38;;;18.10;99.90;;;;;;5073108;28;20127;-67
2023/09/25 09:39:34;;;;;;;2.25;1.23;;;18.10;99.90;;;;;;5073286;28;20075;-66
2023/09/25 09:42:04;;;;;;;2.42;1.25;;;18.20;99.90;;;;;;5072886;28;20149;-66
2023/09/25 09:44:30;;;;;;;2.28;1.10;;;18.20;99.90;;;;;;5072772;28;20127;-67
2023/09/25 09:46:56;;;;;;;3.50;1.38;;;18.20;99.90;;;;;;5072964;28;20055;-66
2023/09/25 09:49:24;;;;;;;2.60;1.40;;;18.20;99.90;;;;;;5072854;28;20044;-67
2023/09/25 09:51:51;;;;;;;2.33;1.10;;;18.20;99.90;;;;;;5072893;28;20056;-66
2023/09/25 09:54:22;;;;;;;2.33;1.20;;;18.10;99.90;;;;;;5071725;28;20051;-66
2023/09/25 09:56:49;;;;;;;1.73;1.00;;;18.20;99.90;;;;;;5072753;28;20044;-65
2023/09/25 09:59:18;;;;;;;3.15;1.30;;;18.20;99.90;;;;;;5072806;28;20127;-66
2023/09/25 10:01:47;;;;;;;3.15;1.30;;;18.20;99.90;;;;;;5072788;28;20504;-65
2023/09/25 10:04:15;;;;;;;3.30;1.20;;;18.20;99.90;;;;;;5072959;28;20048;-65
2023/09/25 10:07:08;;;;;;;2.20;1.17;;;18.40;99.90;;;;;;5076315;28;20086;-66
2023/09/25 10:09:34;;;;;;;3.65;1.40;;;18.50;99.90;;;;;;5075210;28;20098;-65
2023/09/25 10:12:02;;;;;;;1.73;1.00;;;18.50;99.90;;;;;;5076794;28;20102;-66
2023/09/25 10:14:29;;;;;;;4.22;1.50;;;18.50;99.90;;;;;;5076023;28;20052;-66
2023/09/25 10:17:04;;;;;;;3.70;1.40;;;18.40;99.90;;;;;;5076624;28;20052;-65
2023/09/25 10:19:41;;;;;;;2.72;1.30;;;18.50;99.90;;;;;;5076094;28;20041;-65
2023/09/25 10:22:19;;;;;;;2.28;1.20;;;18.60;99.90;;;;;;5075023;28;20044;-66
2023/09/25 10:25:04;;;;;;;2.38;1.10;;;18.80;99.90;;;;;;5075816;28;20531;-66
2023/09/25 10:27:31;;;;;;;1.88;1.02;;;19.00;99.90;;;;;;5076014;28;20093;-67
2023/09/25 10:30:08;;;;;;;2.95;1.20;;;19.20;99.90;;;;;;5075673;28;20106;-66
2023/09/25 10:32:38;;;;;;;2.78;1.00;;;19.20;99.90;;;;;;5075462;28;20096;-66
2023/09/25 10:35:42;;;;;;;2.40;1.20;;;19.30;99.90;;;;;;5074627;28;20057;-66
2023/09/25 10:38:28;;;;;;;2.95;1.20;;;19.40;99.90;;;;;;5075483;28;20049;-67
2023/09/25 10:40:58;;;;;;;2.10;1.10;;;19.50;99.90;;;;;;5076639;28;20048;-66
2023/09/25 10:43:25;;;;;;;2.67;1.17;;;19.60;99.90;;;;;;5075336;28;20093;-68
2023/09/25 10:45:54;;;;;;;2.40;1.00;;;19.60;99.90;;;;;;5075594;28;20048;-67
2023/09/25 10:48:22;;;;;;;1.88;1.13;;;19.50;99.90;;;;;;5075580;28;20056;-67
2023/09/25 10:50:49;;;;;;;1.90;1.05;;;19.60;99.90;;;;;;5075495;28;20045;-67
2023/09/25 10:53:15;;;;;;;2.60;1.20;;;19.60;99.90;;;;;;5074582;28;20054;-67
2023/09/25 10:55:41;;;;;;;2.33;1.02;;;19.70;99.90;;;;;;5075498;28;20396;-68
2023/09/25 10:58:08;;;;;;;2.28;0.95;;;19.70;99.90;;;;;;5075914;28;20047;-67
2023/09/25 11:00:37;;;;;;;2.10;1.10;;;19.70;99.90;;;;;;5075906;28;20095;-68
2023/09/25 11:03:03;;;;;;;2.17;1.00;;;19.70;99.90;;;;;;5075295;28;20059;-67
2023/09/25 11:05:33;;;;;;;2.50;0.98;;;19.80;99.90;;;;;;5075861;28;20044;-68
2023/09/25 11:08:00;;;;;;;3.03;1.40;;;19.70;99.90;;;;;;5075342;28;20043;-68
2023/09/25 11:10:33;;;;;;;2.13;1.05;;;19.60;99.90;;;;;;5074832;28;20518;-68
2023/09/25 11:13:00;;;;;;;1.85;0.90;;;19.60;99.90;;;;;;5075250;28;20051;-68
2023/09/25 11:15:27;;;;;;;2.63;1.17;;;19.50;99.90;;;;;;5074684;28;20054;-67
2023/09/25 11:17:55;;;;;;;3.22;1.20;;;19.50;99.90;;;;;;5075764;28;20120;-67
2023/09/25 11:20:33;;;;;;;2.22;1.10;;;19.60;99.90;;;;;;5075211;28;20381;-67
2023/09/25 11:23:14;;;;;;;3.53;1.00;;;19.60;99.90;;;;;;5075000;28;20044;-67
2023/09/25 11:25:44;;;;;;;1.92;1.02;;;19.50;99.90;;;;;;5074881;28;20040;-67
2023/09/25 11:28:14;;;;;;;2.17;1.00;;;19.50;99.90;;;;;;5074264;28;20516;-67
2023/09/25 11:30:41;;;;;;;1.67;0.95;;;19.50;99.90;;;;;;5074546;28;20070;-67
2023/09/25 11:33:09;;;;;;;2.78;1.10;;;19.50;99.90;;;;;;5074911;28;20063;-68
2023/09/25 11:35:39;;;;;;;2.08;1.08;;;19.50;99.90;;;;;;5074658;28;20091;-67
2023/09/25 11:38:15;;;;;;;2.92;1.10;;;19.50;99.90;;;;;;5075156;28;20051;-67
2023/09/25 11:40:41;;;;;;;2.50;1.05;;;19.50;99.90;;;;;;5075144;28;20041;-68
2023/09/25 11:43:07;;;;;;;1.98;1.10;;;19.60;99.90;;;;;;5074659;28;20101;-68
2023/09/25 11:45:36;;;;;;;2.25;1.08;;;19.70;99.90;;;;;;5074406;28;20044;-68
2023/09/25 11:48:03;;;;;;;3.80;1.55;;;19.80;99.90;;;;;;5074489;28;20052;-68
2023/09/25 11:50:29;;;;;;;2.15;1.00;;;19.80;99.90;;;;;;5074731;28;20087;-68
2023/09/25 11:52:55;;;;;;;1.90;0.90;;;19.80;99.90;;;;;;5074272;28;20056;-68
2023/09/25 11:55:21;;;;;;;2.00;1.10;;;19.80;99.90;;;;;;5074564;28;20044;-67
2023/09/25 11:57:47;;;;;;;1.90;0.93;;;19.80;99.90;;;;;;5074211;28;20052;-68
2023/09/25 12:00:18;;;;;;;2.55;1.08;;;19.80;99.90;;;;;;5074879;28;20047;-69
2023/09/25 12:02:46;;;;;;;4.40;1.13;;;19.80;99.90;;;;;;5074910;28;20049;-68
2023/09/25 12:05:13;;;;;;;2.70;1.00;;;19.70;99.90;;;;;;5074192;28;20494;-68
2023/09/25 12:07:40;;;;;;;2.20;0.98;;;19.60;99.90;;;;;;5074660;28;20390;-68
2023/09/25 12:10:07;;;;;;;3.78;1.33;;;19.60;99.90;;;;;;5072886;28;20040;-67
2023/09/25 12:12:35;;;;;;;2.88;1.33;;;19.70;99.90;;;;;;5073973;28;20424;-68
2023/09/25 12:15:03;;;;;;;2.20;1.13;;;19.70;99.90;;;;;;5073927;28;20141;-68
2023/09/25 12:17:30;;;;;;;2.60;1.27;;;19.70;99.90;;;;;;5072895;28;20059;-68
2023/09/25 12:19:57;;;;;;;2.03;1.00;;;19.70;99.90;;;;;;5073793;28;20044;-67
2023/09/25 12:22:24;;;;;;;3.65;1.13;;;19.80;99.90;;;;;;5074547;28;20099;-67
2023/09/25 12:24:50;;;;;;;3.05;0.85;;;19.90;99.90;;;;;;5073834;28;20056;-67
2023/09/25 12:27:16;;;;;;;2.78;1.20;;;19.80;99.90;;;;;;5073207;28;20099;-67
2023/09/25 12:29:43;;;;;;;2.40;1.20;;;19.90;99.90;;;;;;5074487;28;20044;-68
2023/09/25 12:32:09;;;;;;;3.65;1.05;;;19.90;99.90;;;;;;5074164;28;20453;-68
2023/09/25 12:34:35;;;;;;;2.28;1.27;;;19.90;99.90;;;;;;5074482;28;20051;-68
2023/09/25 12:37:00;;;;;;;3.38;1.00;;;19.90;99.90;;;;;;5073688;28;20510;-67
2023/09/25 12:39:26;;;;;;;2.72;0.90;;;20.00;99.90;;;;;;5073660;28;20051;-69
2023/09/25 12:41:52;;;;;;;3.10;1.15;;;20.00;99.90;;;;;;5072657;28;20127;-69
2023/09/25 12:44:18;;;;;;;2.45;1.20;;;20.00;99.90;;;;;;5073511;28;20045;-68
2023/09/25 12:46:45;;;;;;;5.15;1.15;;;19.90;99.90;;;;;;5073615;28;20063;-68
2023/09/25 12:49:11;;;;;;;2.15;1.20;;;19.80;99.90;;;;;;5073519;28;20128;-69